sensor_id;sensor_type;location;lat;lon;timestamp;pressure;altitude;pressure_sealevel;temperature;humidity
39223;BME280;24936;46.328;11.026;2023-01-28T00:00:51;94107.63;;;-4.78;83.38
39223;BME280;24936;46.328;11.026;2023-01-28T00:03:16;94121.25;;;-5.00;84.58
39223;BME280;24936;46.328;11.026;2023-01-28T00:05:42;94121.81;;;-4.92;84.89
39223;BME280;24936;46.328;11.026;2023-01-28T00:08:07;94125.13;;;-4.88;84.82
39223;BME280;24936;46.328;11.026;2023-01-28T00:10:33;94124.06;;;-4.82;84.90
39223;BME280;24936;46.328;11.026;2023-01-28T00:12:58;94115.22;;;-4.75;85.01
39223;BME280;24936;46.328;11.026;2023-01-28T00:15:23;94108.22;;;-4.71;84.60
39223;BME280;24936;46.328;11.026;2023-01-28T00:17:50;94114.44;;;-4.53;84.38
39223;BME280;24936;46.328;11.026;2023-01-28T00:20:15;94104.88;;;-4.27;82.82
39223;BME280;24936;46.328;11.026;2023-01-28T00:22:46;94111.75;;;-4.06;81.66
39223;BME280;24936;46.328;11.026;2023-01-28T00:25:12;94110.78;;;-4.03;80.79
39223;BME280;24936;46.328;11.026;2023-01-28T00:27:37;94117.59;;;-4.02;80.66
39223;BME280;24936;46.328;11.026;2023-01-28T00:30:03;94119.41;;;-4.26;81.90
39223;BME280;24936;46.328;11.026;2023-01-28T00:32:28;94126.03;;;-4.43;82.92
39223;BME280;24936;46.328;11.026;2023-01-28T00:34:54;94127.72;;;-4.42;83.31
39223;BME280;24936;46.328;11.026;2023-01-28T00:37:19;94123.34;;;-4.40;82.79
39223;BME280;24936;46.328;11.026;2023-01-28T00:39:45;94127.94;;;-4.26;82.38
39223;BME280;24936;46.328;11.026;2023-01-28T00:42:10;94119.03;;;-4.17;81.62
39223;BME280;24936;46.328;11.026;2023-01-28T00:44:36;94116.00;;;-4.05;81.80
39223;BME280;24936;46.328;11.026;2023-01-28T00:47:01;94115.75;;;-3.98;81.37
39223;BME280;24936;46.328;11.026;2023-01-28T00:49:26;94114.88;;;-3.97;81.48
39223;BME280;24936;46.328;11.026;2023-01-28T00:51:52;94123.88;;;-3.87;80.87
39223;BME280;24936;46.328;11.026;2023-01-28T00:54:17;94122.44;;;-3.94;81.46
39223;BME280;24936;46.328;11.026;2023-01-28T00:56:42;94123.69;;;-4.05;81.86
39223;BME280;24936;46.328;11.026;2023-01-28T00:59:08;94118.97;;;-3.93;81.66
39223;BME280;24936;46.328;11.026;2023-01-28T01:01:33;94118.03;;;-3.91;81.44
39223;BME280;24936;46.328;11.026;2023-01-28T01:03:59;94124.50;;;-3.82;80.47
39223;BME280;24936;46.328;11.026;2023-01-28T01:06:38;94119.00;;;-3.73;79.87
39223;BME280;24936;46.328;11.026;2023-01-28T01:09:06;94123.84;;;-3.65;79.36
39223;BME280;24936;46.328;11.026;2023-01-28T01:11:32;94127.13;;;-3.61;79.65
39223;BME280;24936;46.328;11.026;2023-01-28T01:13:59;94125.94;;;-3.54;79.08
39223;BME280;24936;46.328;11.026;2023-01-28T01:16:27;94128.72;;;-3.59;79.44
39223;BME280;24936;46.328;11.026;2023-01-28T01:18:54;94118.22;;;-3.75;80.17
39223;BME280;24936;46.328;11.026;2023-01-28T01:21:22;94123.03;;;-3.88;80.35
39223;BME280;24936;46.328;11.026;2023-01-28T01:23:48;94126.03;;;-3.98;80.11
39223;BME280;24936;46.328;11.026;2023-01-28T01:26:14;94135.34;;;-3.96;79.77
39223;BME280;24936;46.328;11.026;2023-01-28T01:28:40;94136.34;;;-3.78;78.88
39223;BME280;24936;46.328;11.026;2023-01-28T01:31:09;94139.91;;;-3.80;79.32
39223;BME280;24936;46.328;11.026;2023-01-28T01:33:35;94139.78;;;-4.00;81.02
39223;BME280;24936;46.328;11.026;2023-01-28T01:36:00;94137.13;;;-4.19;81.59
39223;BME280;24936;46.328;11.026;2023-01-28T01:38:27;94143.84;;;-4.16;82.09
39223;BME280;24936;46.328;11.026;2023-01-28T01:40:57;94141.09;;;-4.11;81.09
39223;BME280;24936;46.328;11.026;2023-01-28T01:43:23;94136.56;;;-4.05;81.27
39223;BME280;24936;46.328;11.026;2023-01-28T01:45:53;94142.69;;;-3.87;80.32
39223;BME280;24936;46.328;11.026;2023-01-28T01:48:31;94133.19;;;-3.85;80.42
39223;BME280;24936;46.328;11.026;2023-01-28T01:53:25;94130.44;;;-3.80;80.25
39223;BME280;24936;46.328;11.026;2023-01-28T01:55:55;94128.63;;;-3.78;80.33
39223;BME280;24936;46.328;11.026;2023-01-28T01:58:26;94122.72;;;-3.80;80.03
39223;BME280;24936;46.328;11.026;2023-01-28T02:00:53;94118.31;;;-3.76;79.84
39223;BME280;24936;46.328;11.026;2023-01-28T02:03:27;94135.22;;;-3.71;79.01
39223;BME280;24936;46.328;11.026;2023-01-28T02:05:53;94120.50;;;-3.67;79.04
39223;BME280;24936;46.328;11.026;2023-01-28T02:08:19;94128.13;;;-3.86;79.85
39223;BME280;24936;46.328;11.026;2023-01-28T02:11:00;94132.09;;;-4.00;80.77
39223;BME280;24936;46.328;11.026;2023-01-28T02:13:29;94123.03;;;-4.10;80.60
39223;BME280;24936;46.328;11.026;2023-01-28T02:15:58;94125.69;;;-4.11;81.25
39223;BME280;24936;46.328;11.026;2023-01-28T02:18:24;94124.25;;;-4.19;81.63
39223;BME280;24936;46.328;11.026;2023-01-28T02:23:49;94128.06;;;-4.07;80.09
39223;BME280;24936;46.328;11.026;2023-01-28T02:26:44;94118.53;;;-4.25;80.50
39223;BME280;24936;46.328;11.026;2023-01-28T02:29:30;94119.50;;;-4.52;80.96
39223;BME280;24936;46.328;11.026;2023-01-28T02:34:45;94124.09;;;-5.08;83.00
39223;BME280;24936;46.328;11.026;2023-01-28T02:37:20;94133.38;;;-4.80;82.58
39223;BME280;24936;46.328;11.026;2023-01-28T02:40:04;94127.50;;;-4.59;81.13
39223;BME280;24936;46.328;11.026;2023-01-28T02:42:33;94127.19;;;-4.74;81.21
39223;BME280;24936;46.328;11.026;2023-01-28T02:44:59;94137.00;;;-5.09;81.97
39223;BME280;24936;46.328;11.026;2023-01-28T02:47:25;94132.25;;;-4.96;82.19
39223;BME280;24936;46.328;11.026;2023-01-28T02:50:14;94134.81;;;-4.72;80.67
39223;BME280;24936;46.328;11.026;2023-01-28T02:59:35;94143.28;;;-5.43;83.41
39223;BME280;24936;46.328;11.026;2023-01-28T03:04:37;94143.94;;;-5.13;81.45
39223;BME280;24936;46.328;11.026;2023-01-28T03:07:06;94140.28;;;-5.05;81.32
39223;BME280;24936;46.328;11.026;2023-01-28T03:09:34;94143.56;;;-5.26;81.40
39223;BME280;24936;46.328;11.026;2023-01-28T03:12:08;94135.53;;;-5.42;82.18
39223;BME280;24936;46.328;11.026;2023-01-28T03:17:49;94148.00;;;-5.83;83.78
39223;BME280;24936;46.328;11.026;2023-01-28T03:20:55;94148.84;;;-5.82;84.19
39223;BME280;24936;46.328;11.026;2023-01-28T03:23:53;94151.13;;;-5.73;84.83
39223;BME280;24936;46.328;11.026;2023-01-28T03:26:42;94142.34;;;-5.93;85.08
39223;BME280;24936;46.328;11.026;2023-01-28T03:29:29;94151.69;;;-5.92;85.33
39223;BME280;24936;46.328;11.026;2023-01-28T03:32:15;94148.38;;;-5.94;85.36
39223;BME280;24936;46.328;11.026;2023-01-28T03:35:00;94157.09;;;-5.73;85.62
39223;BME280;24936;46.328;11.026;2023-01-28T03:37:44;94162.88;;;-5.66;85.13
39223;BME280;24936;46.328;11.026;2023-01-28T03:40:10;94152.63;;;-5.93;84.77
39223;BME280;24936;46.328;11.026;2023-01-28T03:42:36;94159.03;;;-6.35;86.16
39223;BME280;24936;46.328;11.026;2023-01-28T03:45:02;94164.25;;;-6.09;85.85
39223;BME280;24936;46.328;11.026;2023-01-28T03:47:30;94159.94;;;-6.07;85.34
39223;BME280;24936;46.328;11.026;2023-01-28T03:52:59;94158.47;;;-6.45;86.32
39223;BME280;24936;46.328;11.026;2023-01-28T03:55:36;94173.47;;;-6.61;86.08
39223;BME280;24936;46.328;11.026;2023-01-28T03:58:02;94184.28;;;-6.81;87.06
39223;BME280;24936;46.328;11.026;2023-01-28T04:00:29;94185.53;;;-6.96;87.31
39223;BME280;24936;46.328;11.026;2023-01-28T04:02:54;94188.69;;;-6.56;87.40
39223;BME280;24936;46.328;11.026;2023-01-28T04:05:20;94185.84;;;-6.47;86.54
39223;BME280;24936;46.328;11.026;2023-01-28T04:07:45;94182.63;;;-6.53;86.62
39223;BME280;24936;46.328;11.026;2023-01-28T04:10:10;94179.75;;;-6.42;86.13
39223;BME280;24936;46.328;11.026;2023-01-28T04:12:36;94190.28;;;-6.22;85.51
39223;BME280;24936;46.328;11.026;2023-01-28T04:15:03;94187.31;;;-6.09;84.85
39223;BME280;24936;46.328;11.026;2023-01-28T04:17:39;94195.28;;;-6.19;85.05
39223;BME280;24936;46.328;11.026;2023-01-28T04:20:08;94197.25;;;-6.57;85.60
39223;BME280;24936;46.328;11.026;2023-01-28T04:22:33;94199.78;;;-6.85;86.29
39223;BME280;24936;46.328;11.026;2023-01-28T04:24:59;94191.03;;;-6.78;87.06
39223;BME280;24936;46.328;11.026;2023-01-28T04:27:24;94181.88;;;-6.55;86.34
39223;BME280;24936;46.328;11.026;2023-01-28T04:29:49;94186.69;;;-6.18;85.67
39223;BME280;24936;46.328;11.026;2023-01-28T04:32:15;94195.75;;;-6.06;84.60
39223;BME280;24936;46.328;11.026;2023-01-28T04:34:40;94198.13;;;-6.28;84.86
39223;BME280;24936;46.328;11.026;2023-01-28T04:37:06;94205.06;;;-6.32;84.81
39223;BME280;24936;46.328;11.026;2023-01-28T04:39:31;94207.47;;;-6.55;85.15
39223;BME280;24936;46.328;11.026;2023-01-28T04:41:56;94210.41;;;-6.69;85.23
39223;BME280;24936;46.328;11.026;2023-01-28T04:44:22;94215.38;;;-6.63;84.72
39223;BME280;24936;46.328;11.026;2023-01-28T04:46:47;94213.09;;;-6.74;84.63
39223;BME280;24936;46.328;11.026;2023-01-28T04:49:12;94217.91;;;-6.93;85.16
39223;BME280;24936;46.328;11.026;2023-01-28T04:51:38;94222.22;;;-6.95;86.01
39223;BME280;24936;46.328;11.026;2023-01-28T04:54:03;94226.44;;;-6.94;85.82
39223;BME280;24936;46.328;11.026;2023-01-28T04:56:28;94222.09;;;-6.91;85.70
39223;BME280;24936;46.328;11.026;2023-01-28T04:58:54;94228.75;;;-6.85;85.48
39223;BME280;24936;46.328;11.026;2023-01-28T05:01:19;94238.44;;;-6.96;85.56
39223;BME280;24936;46.328;11.026;2023-01-28T05:03:44;94240.13;;;-6.95;85.65
39223;BME280;24936;46.328;11.026;2023-01-28T05:06:10;94237.03;;;-6.75;85.37
39223;BME280;24936;46.328;11.026;2023-01-28T05:08:35;94247.78;;;-6.62;85.41
39223;BME280;24936;46.328;11.026;2023-01-28T05:11:01;94249.22;;;-6.83;85.76
39223;BME280;24936;46.328;11.026;2023-01-28T05:13:26;94242.50;;;-6.89;86.28
39223;BME280;24936;46.328;11.026;2023-01-28T05:15:52;94257.50;;;-6.75;86.31
39223;BME280;24936;46.328;11.026;2023-01-28T05:18:18;94243.44;;;-6.30;85.79
39223;BME280;24936;46.328;11.026;2023-01-28T05:20:44;94249.56;;;-6.34;85.52
39223;BME280;24936;46.328;11.026;2023-01-28T05:23:09;94248.03;;;-6.41;84.11
39223;BME280;24936;46.328;11.026;2023-01-28T05:25:35;94250.13;;;-6.24;83.14
39223;BME280;24936;46.328;11.026;2023-01-28T05:28:00;94244.91;;;-6.21;83.69
39223;BME280;24936;46.328;11.026;2023-01-28T05:30:28;94255.66;;;-6.38;84.12
39223;BME280;24936;46.328;11.026;2023-01-28T05:32:55;94256.75;;;-6.47;85.54
39223;BME280;24936;46.328;11.026;2023-01-28T05:35:21;94263.34;;;-6.70;85.39
39223;BME280;24936;46.328;11.026;2023-01-28T05:37:46;94273.69;;;-6.74;86.07
39223;BME280;24936;46.328;11.026;2023-01-28T05:40:12;94266.47;;;-6.58;85.35
39223;BME280;24936;46.328;11.026;2023-01-28T05:42:37;94277.84;;;-6.69;85.36
39223;BME280;24936;46.328;11.026;2023-01-28T05:45:03;94275.22;;;-6.67;84.44
39223;BME280;24936;46.328;11.026;2023-01-28T05:47:28;94277.31;;;-6.82;84.43
39223;BME280;24936;46.328;11.026;2023-01-28T05:49:54;94272.06;;;-6.77;83.99
39223;BME280;24936;46.328;11.026;2023-01-28T05:52:19;94272.28;;;-6.85;83.54
39223;BME280;24936;46.328;11.026;2023-01-28T05:54:45;94288.19;;;-7.07;83.90
39223;BME280;24936;46.328;11.026;2023-01-28T05:57:10;94293.19;;;-7.02;83.83
39223;BME280;24936;46.328;11.026;2023-01-28T05:59:35;94287.50;;;-6.80;83.41
39223;BME280;24936;46.328;11.026;2023-01-28T06:02:01;94297.25;;;-6.95;83.16
39223;BME280;24936;46.328;11.026;2023-01-28T06:04:26;94294.69;;;-6.93;83.14
39223;BME280;24936;46.328;11.026;2023-01-28T06:06:52;94296.16;;;-6.84;82.71
39223;BME280;24936;46.328;11.026;2023-01-28T06:09:17;94306.03;;;-6.70;81.96
39223;BME280;24936;46.328;11.026;2023-01-28T06:11:43;94305.34;;;-6.77;81.70
39223;BME280;24936;46.328;11.026;2023-01-28T06:14:09;94314.09;;;-7.19;82.58
39223;BME280;24936;46.328;11.026;2023-01-28T06:16:35;94323.13;;;-7.40;83.68
39223;BME280;24936;46.328;11.026;2023-01-28T06:19:01;94318.78;;;-7.38;84.01
39223;BME280;24936;46.328;11.026;2023-01-28T06:21:26;94317.91;;;-7.37;83.79
39223;BME280;24936;46.328;11.026;2023-01-28T06:23:52;94326.22;;;-7.63;84.52
39223;BME280;24936;46.328;11.026;2023-01-28T06:26:17;94322.03;;;-7.68;85.10
39223;BME280;24936;46.328;11.026;2023-01-28T06:28:43;94324.19;;;-7.49;84.83
39223;BME280;24936;46.328;11.026;2023-01-28T06:31:08;94319.13;;;-7.52;84.72
39223;BME280;24936;46.328;11.026;2023-01-28T06:33:33;94323.59;;;-7.60;84.98
39223;BME280;24936;46.328;11.026;2023-01-28T06:36:02;94334.00;;;-7.70;85.47
39223;BME280;24936;46.328;11.026;2023-01-28T06:38:28;94329.34;;;-7.52;85.49
39223;BME280;24936;46.328;11.026;2023-01-28T06:40:53;94339.66;;;-7.55;85.31
39223;BME280;24936;46.328;11.026;2023-01-28T06:43:27;94339.41;;;-7.44;85.42
39223;BME280;24936;46.328;11.026;2023-01-28T06:45:55;94336.09;;;-7.48;85.15
39223;BME280;24936;46.328;11.026;2023-01-28T06:48:20;94339.53;;;-7.49;85.04
39223;BME280;24936;46.328;11.026;2023-01-28T06:50:47;94346.38;;;-7.51;84.78
39223;BME280;24936;46.328;11.026;2023-01-28T06:53:13;94350.50;;;-7.09;84.11
39223;BME280;24936;46.328;11.026;2023-01-28T06:55:38;94349.00;;;-6.82;82.71
39223;BME280;24936;46.328;11.026;2023-01-28T06:58:03;94359.84;;;-7.07;83.20
39223;BME280;24936;46.328;11.026;2023-01-28T07:00:29;94358.75;;;-7.32;84.05
39223;BME280;24936;46.328;11.026;2023-01-28T07:02:55;94371.53;;;-7.32;84.35
39223;BME280;24936;46.328;11.026;2023-01-28T07:05:21;94371.38;;;-7.25;84.62
39223;BME280;24936;46.328;11.026;2023-01-28T07:07:46;94375.81;;;-6.97;83.67
39223;BME280;24936;46.328;11.026;2023-01-28T07:10:12;94374.16;;;-6.98;83.63
39223;BME280;24936;46.328;11.026;2023-01-28T07:12:37;94375.78;;;-6.95;83.43
39223;BME280;24936;46.328;11.026;2023-01-28T07:15:03;94381.53;;;-6.87;83.64
39223;BME280;24936;46.328;11.026;2023-01-28T07:17:29;94376.41;;;-6.87;83.35
39223;BME280;24936;46.328;11.026;2023-01-28T07:19:54;94387.34;;;-6.80;83.50
39223;BME280;24936;46.328;11.026;2023-01-28T07:22:19;94385.03;;;-6.89;83.95
39223;BME280;24936;46.328;11.026;2023-01-28T07:24:45;94395.69;;;-6.72;83.72
39223;BME280;24936;46.328;11.026;2023-01-28T07:27:10;94386.78;;;-6.57;82.27
39223;BME280;24936;46.328;11.026;2023-01-28T07:29:36;94389.00;;;-6.45;82.24
39223;BME280;24936;46.328;11.026;2023-01-28T07:32:01;94395.50;;;-6.31;81.12
39223;BME280;24936;46.328;11.026;2023-01-28T07:34:26;94393.72;;;-6.27;80.79
39223;BME280;24936;46.328;11.026;2023-01-28T07:36:52;94393.06;;;-6.36;81.89
39223;BME280;24936;46.328;11.026;2023-01-28T07:39:17;94390.28;;;-6.28;81.39
39223;BME280;24936;46.328;11.026;2023-01-28T07:41:43;94387.44;;;-6.17;81.16
39223;BME280;24936;46.328;11.026;2023-01-28T07:44:08;94401.22;;;-5.91;80.03
39223;BME280;24936;46.328;11.026;2023-01-28T07:46:33;94389.06;;;-5.85;79.53
39223;BME280;24936;46.328;11.026;2023-01-28T07:48:59;94391.78;;;-5.89;80.09
39223;BME280;24936;46.328;11.026;2023-01-28T07:51:24;94393.38;;;-5.85;79.85
39223;BME280;24936;46.328;11.026;2023-01-28T07:53:50;94396.59;;;-5.78;80.16
39223;BME280;24936;46.328;11.026;2023-01-28T07:56:15;94389.38;;;-5.65;80.39
39223;BME280;24936;46.328;11.026;2023-01-28T07:58:40;94397.47;;;-5.49;78.97
39223;BME280;24936;46.328;11.026;2023-01-28T08:01:06;94394.34;;;-5.31;77.92
39223;BME280;24936;46.328;11.026;2023-01-28T08:03:31;94399.41;;;-5.28;78.55
39223;BME280;24936;46.328;11.026;2023-01-28T08:05:57;94400.22;;;-5.27;79.29
39223;BME280;24936;46.328;11.026;2023-01-28T08:08:23;94400.44;;;-5.33;80.04
39223;BME280;24936;46.328;11.026;2023-01-28T08:10:50;94402.75;;;-5.26;80.24
39223;BME280;24936;46.328;11.026;2023-01-28T08:13:16;94401.59;;;-5.15;79.84
39223;BME280;24936;46.328;11.026;2023-01-28T08:15:43;94409.28;;;-5.15;80.09
39223;BME280;24936;46.328;11.026;2023-01-28T08:18:11;94417.72;;;-5.12;79.97
39223;BME280;24936;46.328;11.026;2023-01-28T08:20:37;94420.72;;;-4.97;80.07
39223;BME280;24936;46.328;11.026;2023-01-28T08:23:19;94422.16;;;-4.88;79.48
39223;BME280;24936;46.328;11.026;2023-01-28T08:25:46;94427.94;;;-4.82;79.01
39223;BME280;24936;46.328;11.026;2023-01-28T08:28:12;94423.53;;;-4.78;78.95
39223;BME280;24936;46.328;11.026;2023-01-28T08:30:39;94424.81;;;-4.65;77.84
39223;BME280;24936;46.328;11.026;2023-01-28T08:33:06;94433.16;;;-4.58;76.92
39223;BME280;24936;46.328;11.026;2023-01-28T08:35:32;94432.00;;;-4.48;76.25
39223;BME280;24936;46.328;11.026;2023-01-28T08:37:59;94440.38;;;-4.42;75.73
39223;BME280;24936;46.328;11.026;2023-01-28T08:40:25;94434.06;;;-4.32;75.07
39223;BME280;24936;46.328;11.026;2023-01-28T08:42:52;94437.94;;;-4.20;74.92
39223;BME280;24936;46.328;11.026;2023-01-28T08:45:19;94437.56;;;-4.09;74.43
39223;BME280;24936;46.328;11.026;2023-01-28T08:47:58;94440.50;;;-3.95;73.09
39223;BME280;24936;46.328;11.026;2023-01-28T08:50:26;94444.22;;;-3.78;72.35
39223;BME280;24936;46.328;11.026;2023-01-28T08:52:56;94440.59;;;-3.73;71.65
39223;BME280;24936;46.328;11.026;2023-01-28T08:55:22;94435.97;;;-3.63;70.57
39223;BME280;24936;46.328;11.026;2023-01-28T08:57:48;94444.22;;;-3.31;68.73
39223;BME280;24936;46.328;11.026;2023-01-28T09:00:14;94443.78;;;-2.74;69.30
39223;BME280;24936;46.328;11.026;2023-01-28T09:02:39;94434.84;;;-2.02;65.44
39223;BME280;24936;46.328;11.026;2023-01-28T09:05:05;94436.88;;;-0.36;61.92
39223;BME280;24936;46.328;11.026;2023-01-28T09:07:31;94437.06;;;0.81;56.51
39223;BME280;24936;46.328;11.026;2023-01-28T09:09:58;94431.19;;;2.18;51.49
39223;BME280;24936;46.328;11.026;2023-01-28T09:12:23;94426.38;;;3.13;50.67
39223;BME280;24936;46.328;11.026;2023-01-28T09:14:49;94440.19;;;4.36;45.83
39223;BME280;24936;46.328;11.026;2023-01-28T09:17:14;94430.22;;;4.56;44.47
39223;BME280;24936;46.328;11.026;2023-01-28T09:19:39;94436.09;;;5.47;43.41
39223;BME280;24936;46.328;11.026;2023-01-28T09:22:05;94435.00;;;5.62;41.49
39223;BME280;24936;46.328;11.026;2023-01-28T09:24:30;94432.06;;;4.67;44.31
39223;BME280;24936;46.328;11.026;2023-01-28T09:26:56;94439.78;;;4.55;45.62
39223;BME280;24936;46.328;11.026;2023-01-28T09:29:21;94435.19;;;4.98;43.58
39223;BME280;24936;46.328;11.026;2023-01-28T09:31:47;94435.84;;;4.63;45.35
39223;BME280;24936;46.328;11.026;2023-01-28T09:34:13;94432.78;;;4.69;45.15
39223;BME280;24936;46.328;11.026;2023-01-28T09:36:38;94442.88;;;4.22;48.02
39223;BME280;24936;46.328;11.026;2023-01-28T09:39:03;94439.00;;;4.02;47.57
39223;BME280;24936;46.328;11.026;2023-01-28T09:44:34;94440.88;;;2.59;51.26
39223;BME280;24936;46.328;11.026;2023-01-28T09:47:04;94448.34;;;1.60;51.98
39223;BME280;24936;46.328;11.026;2023-01-28T09:49:37;94445.31;;;3.15;49.27
39223;BME280;24936;46.328;11.026;2023-01-28T09:52:14;94439.47;;;3.81;47.83
39223;BME280;24936;46.328;11.026;2023-01-28T09:54:49;94437.97;;;5.20;42.78
39223;BME280;24936;46.328;11.026;2023-01-28T09:57:51;94437.19;;;5.31;43.64
39223;BME280;24936;46.328;11.026;2023-01-28T10:00:23;94436.31;;;6.05;39.79
39223;BME280;24936;46.328;11.026;2023-01-28T10:16:59;94422.63;;;7.62;38.37
39223;BME280;24936;46.328;11.026;2023-01-28T10:19:30;94414.88;;;7.17;38.53
39223;BME280;24936;46.328;11.026;2023-01-28T10:22:03;94414.78;;;7.51;39.59
39223;BME280;24936;46.328;11.026;2023-01-28T10:24:35;94417.16;;;7.65;37.02
39223;BME280;24936;46.328;11.026;2023-01-28T10:27:10;94412.31;;;7.27;38.73
39223;BME280;24936;46.328;11.026;2023-01-28T10:29:37;94417.91;;;5.82;40.64
39223;BME280;24936;46.328;11.026;2023-01-28T10:32:10;94413.88;;;5.41;41.43
39223;BME280;24936;46.328;11.026;2023-01-28T10:34:37;94400.22;;;6.10;42.52
39223;BME280;24936;46.328;11.026;2023-01-28T10:37:03;94393.53;;;5.71;41.58
39223;BME280;24936;46.328;11.026;2023-01-28T10:39:29;94395.31;;;3.52;44.60
39223;BME280;24936;46.328;11.026;2023-01-28T10:41:54;94402.25;;;2.53;45.92
39223;BME280;24936;46.328;11.026;2023-01-28T10:44:36;94402.69;;;1.41;49.63
39223;BME280;24936;46.328;11.026;2023-01-28T10:47:23;94397.06;;;2.68;48.62
39223;BME280;24936;46.328;11.026;2023-01-28T10:49:54;94390.59;;;2.60;47.49
39223;BME280;24936;46.328;11.026;2023-01-28T10:52:22;94384.75;;;2.71;48.64
39223;BME280;24936;46.328;11.026;2023-01-28T10:54:58;94386.19;;;2.90;49.56
39223;BME280;24936;46.328;11.026;2023-01-28T10:57:24;94378.63;;;3.42;49.43
39223;BME280;24936;46.328;11.026;2023-01-28T10:59:49;94368.69;;;4.15;45.78
39223;BME280;24936;46.328;11.026;2023-01-28T11:04:46;94369.50;;;4.15;41.73
39223;BME280;24936;46.328;11.026;2023-01-28T11:07:17;94363.78;;;4.62;41.95
39223;BME280;24936;46.328;11.026;2023-01-28T11:09:50;94363.44;;;4.79;40.33
39223;BME280;24936;46.328;11.026;2023-01-28T11:12:27;94355.34;;;5.81;39.73
39223;BME280;24936;46.328;11.026;2023-01-28T11:15:04;94360.97;;;4.39;42.46
39223;BME280;24936;46.328;11.026;2023-01-28T11:17:32;94353.44;;;2.87;45.90
39223;BME280;24936;46.328;11.026;2023-01-28T11:20:07;94346.91;;;2.95;49.00
39223;BME280;24936;46.328;11.026;2023-01-28T11:22:41;94344.38;;;3.88;47.15
39223;BME280;24936;46.328;11.026;2023-01-28T11:25:27;94343.25;;;4.44;43.58
39223;BME280;24936;46.328;11.026;2023-01-28T11:27:54;94339.06;;;3.77;45.14
39223;BME280;24936;46.328;11.026;2023-01-28T11:32:56;94323.78;;;2.90;48.74
39223;BME280;24936;46.328;11.026;2023-01-28T11:35:26;94329.84;;;2.90;47.41
39223;BME280;24936;46.328;11.026;2023-01-28T11:37:55;94310.22;;;2.57;49.70
39223;BME280;24936;46.328;11.026;2023-01-28T11:40:20;94316.81;;;2.05;49.05
39223;BME280;24936;46.328;11.026;2023-01-28T11:42:46;94319.34;;;2.50;48.66
39223;BME280;24936;46.328;11.026;2023-01-28T11:45:24;94317.38;;;3.76;47.42
39223;BME280;24936;46.328;11.026;2023-01-28T11:48:00;94312.72;;;3.69;44.82
39223;BME280;24936;46.328;11.026;2023-01-28T11:56:04;94313.88;;;2.82;50.74
39223;BME280;24936;46.328;11.026;2023-01-28T12:05:23;94294.78;;;3.24;48.85
39223;BME280;24936;46.328;11.026;2023-01-28T12:10:00;94295.09;;;3.59;47.59
39223;BME280;24936;46.328;11.026;2023-01-28T12:15:23;94284.28;;;3.78;44.13
39223;BME280;24936;46.328;11.026;2023-01-28T12:18:11;94281.16;;;3.86;43.11
39223;BME280;24936;46.328;11.026;2023-01-28T12:21:04;94272.75;;;3.95;39.01
39223;BME280;24936;46.328;11.026;2023-01-28T12:35:16;94244.91;;;3.57;41.01
39223;BME280;24936;46.328;11.026;2023-01-28T12:41:15;94239.84;;;3.28;41.88
39223;BME280;24936;46.328;11.026;2023-01-28T12:43:18;94247.38;;;3.33;40.47
39223;BME280;24936;46.328;11.026;2023-01-28T12:45:50;94256.88;;;3.06;40.91
39223;BME280;24936;46.328;11.026;2023-01-28T12:48:43;94249.13;;;3.32;41.91
39223;BME280;24936;46.328;11.026;2023-01-28T12:51:15;94255.81;;;3.49;42.26
39223;BME280;24936;46.328;11.026;2023-01-28T12:53:51;94253.47;;;3.19;43.89
39223;BME280;24936;46.328;11.026;2023-01-28T12:56:30;94244.47;;;2.97;45.84
39223;BME280;24936;46.328;11.026;2023-01-28T12:59:03;94245.66;;;2.79;47.76
39223;BME280;24936;46.328;11.026;2023-01-28T13:01:41;94246.81;;;2.60;47.61
39223;BME280;24936;46.328;11.026;2023-01-28T13:06:56;94252.78;;;2.48;48.07
39223;BME280;24936;46.328;11.026;2023-01-28T13:09:24;94244.84;;;2.22;50.27
39223;BME280;24936;46.328;11.026;2023-01-28T13:11:53;94248.03;;;1.83;49.10
39223;BME280;24936;46.328;11.026;2023-01-28T13:14:25;94252.94;;;1.88;48.00
39223;BME280;24936;46.328;11.026;2023-01-28T13:16:52;94253.09;;;1.71;49.70
39223;BME280;24936;46.328;11.026;2023-01-28T13:21:43;94258.34;;;1.40;51.52
39223;BME280;24936;46.328;11.026;2023-01-28T13:31:40;94249.13;;;4.73;44.89
39223;BME280;24936;46.328;11.026;2023-01-28T13:34:10;94245.03;;;5.77;41.75
39223;BME280;24936;46.328;11.026;2023-01-28T13:36:44;94240.44;;;5.45;40.68
39223;BME280;24936;46.328;11.026;2023-01-28T13:39:19;94245.59;;;4.74;41.46
39223;BME280;24936;46.328;11.026;2023-01-28T13:41:48;94252.28;;;4.65;43.15
39223;BME280;24936;46.328;11.026;2023-01-28T13:46:45;94254.78;;;4.29;44.22
39223;BME280;24936;46.328;11.026;2023-01-28T13:49:18;94254.03;;;4.27;44.62
39223;BME280;24936;46.328;11.026;2023-01-28T13:51:56;94249.84;;;5.24;44.35
39223;BME280;24936;46.328;11.026;2023-01-28T13:54:23;94246.75;;;6.12;42.07
39223;BME280;24936;46.328;11.026;2023-01-28T14:19:37;94250.06;;;6.49;37.14
39223;BME280;24936;46.328;11.026;2023-01-28T14:22:07;94255.09;;;6.40;40.14
39223;BME280;24936;46.328;11.026;2023-01-28T14:24:35;94254.38;;;6.04;37.15
39223;BME280;24936;46.328;11.026;2023-01-28T14:27:22;94260.56;;;5.32;39.01
39223;BME280;24936;46.328;11.026;2023-01-28T14:32:22;94256.47;;;5.16;37.87
39223;BME280;24936;46.328;11.026;2023-01-28T14:34:51;94257.16;;;5.07;37.29
39223;BME280;24936;46.328;11.026;2023-01-28T14:37:19;94255.56;;;5.29;36.55
39223;BME280;24936;46.328;11.026;2023-01-28T14:39:51;94262.59;;;5.75;35.65
39223;BME280;24936;46.328;11.026;2023-01-28T14:42:22;94271.88;;;5.44;36.05
39223;BME280;24936;46.328;11.026;2023-01-28T14:47:53;94272.41;;;4.76;40.62
39223;BME280;24936;46.328;11.026;2023-01-28T14:56:16;94286.00;;;5.41;38.59
39223;BME280;24936;46.328;11.026;2023-01-28T14:58:52;94281.06;;;5.25;39.81
39223;BME280;24936;46.328;11.026;2023-01-28T15:01:22;94290.66;;;5.25;36.86
39223;BME280;24936;46.328;11.026;2023-01-28T15:03:48;94286.81;;;4.93;37.10
39223;BME280;24936;46.328;11.026;2023-01-28T15:06:17;94289.16;;;4.35;38.08
39223;BME280;24936;46.328;11.026;2023-01-28T15:08:44;94291.34;;;3.63;38.53